BKDO2: Broken Bow Lake

Data processed at Fri Dec 08 2017 23:08


All information presented herein is the property of the government of the United States of America and may be revised or deleted at any time without prior notice.
Dissemination of this information without the expressed written consent of the Public Affairs Office, Tulsa District U.S. Army Corps of Engineers is strictly prohibited.
These data are gathered electronically and, as presented, have not undergone any form of quality control. These data are not guaranteed to be valid or correct.
Go to home page.
Go to station list.

Upstream stations:

Downstream station:
Previous Day
Next Day
Current Day
    
SHEF ID:       BKDO2     Broken Bow Lake
STATION TYPE:  RESERVOIR
Normal Pool:  Bottom =   559.00, Top =   599.50

               PRECIP ELEVATION   STORAGE   TW-ELEV    INFLOW   RELEASE  AIR-TEMP  WIND-DIRWIND-SPEED REL-HUMID SOLAR-RAD   VOLTAGE  BAT-LOAD
                   in        ft     ac-ft        ft       cfs       cfs         F       deg       mph         %      W/m2      volt      volt
              Ccp-Rev   Ccp-Rev   Ccp-Rev   Ccp-Rev  Regi-Rev  Regi-Rev   Ccp-Rev   Ccp-Rev   Ccp-Rev   Ccp-Rev   Ccp-Rev   Ccp-Rev   Ccp-Rev
(US/Central)
12/06 00:00      0.00    590.73    799689    401.05         1        94     42.21    307.00      2.69     46.58      0.00     12.90     12.48
12/06 01:00      0.00    590.77    800186    401.05         1        94     42.96    293.00      1.45     47.56      0.00     12.87     12.48
12/06 02:00      0.00    590.75    799937    401.05         4        94     42.40    299.60      1.63     57.32      0.00     12.83     12.42
12/06 03:00      0.00    590.74    799813    401.05         3        94     40.87     14.20      0.73     53.66      0.00     12.81     12.36
12/06 04:00      0.00    590.74    799813    401.05         3        94     38.03    204.10      0.19     58.97      0.00     12.82     12.36
12/06 05:00      0.00    590.74    799813    401.05         3        94     41.09    305.00      2.07     43.59      0.00     12.81     12.36
12/06 06:00      0.00    590.75    799937    401.05         3        94     39.99    293.00      0.32     54.15      0.00     12.80     12.42
12/06 07:00      0.00    590.76    800062    401.05         0        94     42.96    302.10      1.55     53.84      0.00     12.79     12.36
12/06 08:00      0.00    590.75    799937    401.05         0        94     42.96    297.10      1.19     42.92     23.00     12.82     12.36
12/06 09:00      0.00    590.74    799813    401.05         0        94     44.29    299.80      1.43     40.35     92.00     13.01     12.36
12/06 10:00      0.00    590.76    800062    401.05         0        94     44.94     72.40      0.04     49.88    136.00     13.25     12.54
12/06 11:00      0.00    590.73    799689    401.05         0        94     46.47    305.80      0.40     43.28    152.00     13.40     12.83
12/06 12:00      0.00    590.74    799813    401.05         0        93     49.01    302.60      3.97     29.43    237.00     13.61     12.95
12/06 13:00      0.00    590.74    799813    401.05         0        93     49.78    305.30      1.80     27.23    199.00     13.56     13.12
12/06 14:00      0.00    590.74    799813    401.05         0        93     50.32    301.30      1.58     31.20    160.00     13.53     13.07
12/06 15:00      0.00    590.73    799689    401.05         0        93     51.08    215.80      0.28     28.75    129.00     13.46     13.00
12/06 16:00      0.00    590.72    799565    402.66         0       709     50.56    256.30      0.14     33.64     81.00     13.30     12.95
12/06 17:00      0.00    590.71    799441    403.69         0      3489     50.22    303.90      2.81     32.72     21.00     13.12     12.83
12/06 18:00      0.00    590.68    799069    403.68         0      3546     48.02    311.50      0.54     34.98      1.00     13.07     12.65
12/06 19:00      0.00    590.67    798945    402.94         0      3488     44.94    145.90      0.45     52.08      0.00     13.03     12.60
12/06 20:00      0.00    590.65    798696    401.05         0       708     44.29    143.20      1.26     52.44      0.00     12.99     12.60
12/06 21:00      0.00    590.66    798821    401.05         0        92     43.84    150.60      0.51     51.83      0.00     12.96     12.60
12/06 22:00      0.00    590.66    798821    401.05         0        92     45.72    313.80      2.64     42.61      0.00     12.93     12.54
12/06 23:00      0.00    590.66    798821    401.05         0        92     46.38    307.70      1.87     46.40      0.00     12.90     12.54